createdAt,value
2023-03-05T00:01:51.122Z,9.40
2023-03-05T00:06:52.830Z,8.45
2023-03-05T00:11:54.533Z,8.65
2023-03-05T00:16:56.265Z,8.90
2023-03-05T00:21:57.938Z,8.60
2023-03-05T00:26:59.610Z,8.95
2023-03-05T00:32:01.358Z,7.97
2023-03-05T00:37:03.796Z,8.70
2023-03-05T00:42:05.717Z,8.45
2023-03-05T00:47:07.351Z,8.18
2023-03-05T00:52:08.978Z,8.20
2023-03-05T00:57:10.586Z,8.45
2023-03-05T01:02:12.256Z,8.20
2023-03-05T01:07:14.091Z,7.88
2023-03-05T01:12:16.055Z,8.73
2023-03-05T01:17:17.766Z,8.23
2023-03-05T01:22:19.503Z,7.97
2023-03-05T01:27:21.159Z,9.02
2023-03-05T01:32:22.865Z,8.93
2023-03-05T01:37:24.581Z,7.95
2023-03-05T01:42:26.245Z,7.78
2023-03-05T01:47:27.939Z,8.38
2023-03-05T01:52:33.249Z,8.48
2023-03-05T01:57:39.678Z,8.25
2023-03-05T02:02:44.062Z,8.13
2023-03-05T02:07:46.199Z,8.70
2023-03-05T02:12:49.904Z,9.13
2023-03-05T02:17:51.586Z,8.95
2023-03-05T02:22:53.823Z,8.35
2023-03-05T02:28:12.166Z,8.43
2023-03-05T02:33:15.470Z,8.20
2023-03-05T02:38:19.690Z,7.63
2023-03-05T02:43:21.407Z,8.52
2023-03-05T02:48:23.118Z,8.88
2023-03-05T02:53:26.371Z,9.30
2023-03-05T02:58:28.001Z,8.70
2023-03-05T03:03:29.767Z,8.18
2023-03-05T03:08:31.670Z,8.35
2023-03-05T03:13:33.388Z,7.88
2023-03-05T03:18:35.206Z,7.20
2023-03-05T03:23:36.893Z,7.45
2023-03-05T03:28:38.521Z,7.38
2023-03-05T03:33:40.182Z,6.90
2023-03-05T03:38:42.174Z,7.78
2023-03-05T03:43:43.845Z,7.13
2023-03-05T03:48:45.517Z,8.30
2023-03-05T03:53:47.387Z,7.38
2023-03-05T03:58:53.082Z,7.10
2023-03-05T04:03:54.805Z,7.38
2023-03-05T04:08:57.014Z,7.00
2023-03-05T04:13:58.670Z,6.80
2023-03-05T04:19:00.319Z,7.00
2023-03-05T04:24:02.024Z,7.28
2023-03-05T04:29:03.954Z,7.45
2023-03-05T04:34:05.586Z,7.20
2023-03-05T04:39:07.485Z,7.22
2023-03-05T04:44:09.444Z,7.60
2023-03-05T04:49:11.113Z,8.18
2023-03-05T04:54:12.735Z,7.82
2023-03-05T04:59:14.437Z,7.13
2023-03-05T05:04:16.118Z,7.55
2023-03-05T05:09:17.843Z,7.55
2023-03-05T05:14:20.031Z,6.57
2023-03-05T05:19:21.733Z,7.40
2023-03-05T05:24:23.955Z,7.47
2023-03-05T05:29:26.197Z,7.45
2023-03-05T05:34:27.945Z,7.82
2023-03-05T05:39:29.827Z,8.05
2023-03-05T05:44:31.642Z,6.97
2023-03-05T05:49:33.339Z,20.90
2023-03-05T05:54:35.087Z,22.38
2023-03-05T05:59:37.581Z,15.15
2023-03-05T06:04:40.419Z,8.38
2023-03-05T06:09:42.100Z,7.75
2023-03-05T06:14:43.845Z,7.15
2023-03-05T06:19:45.831Z,7.18
2023-03-05T06:24:47.545Z,7.38
2023-03-05T06:29:53.344Z,6.75
2023-03-05T06:34:55.297Z,6.97
2023-03-05T06:39:57.089Z,7.82
2023-03-05T06:44:58.871Z,7.95
2023-03-05T06:50:00.722Z,8.15
2023-03-05T06:55:03.246Z,8.80
2023-03-05T07:00:11.802Z,8.05
2023-03-05T07:05:13.799Z,8.38
2023-03-05T07:10:15.489Z,10.20
2023-03-05T07:15:17.261Z,9.60
2023-03-05T07:20:18.963Z,10.23
2023-03-05T07:25:21.718Z,10.40
2023-03-05T07:30:23.501Z,10.13
2023-03-05T07:35:25.213Z,9.23
2023-03-05T07:40:27.289Z,8.13
2023-03-05T07:45:29.276Z,8.68
2023-03-05T07:50:33.124Z,10.10
2023-03-05T07:55:35.308Z,10.10
2023-03-05T08:00:38.823Z,9.85
2023-03-05T08:05:41.629Z,10.38
2023-03-05T08:10:43.481Z,10.38
2023-03-05T08:15:46.239Z,10.82
2023-03-05T08:20:47.954Z,9.10
2023-03-05T08:25:49.617Z,9.00
2023-03-05T08:30:51.550Z,9.27
2023-03-05T08:35:53.303Z,9.70
2023-03-05T08:40:55.179Z,9.88
2023-03-05T08:45:57.809Z,10.07
2023-03-05T08:51:10.447Z,9.82
2023-03-05T08:56:13.139Z,9.85
2023-03-05T09:01:15.330Z,9.75
2023-03-05T09:06:17.134Z,11.13
2023-03-05T09:11:19.100Z,8.57
2023-03-05T09:16:21.199Z,9.45
2023-03-05T09:21:22.937Z,10.50
2023-03-05T09:26:24.653Z,10.18
2023-03-05T09:31:26.449Z,10.35
2023-03-05T09:36:30.409Z,10.48
2023-03-05T09:42:20.219Z,10.25
2023-03-05T09:47:34.076Z,9.95
2023-03-05T09:52:47.234Z,10.38
2023-03-05T09:57:54.991Z,9.63
2023-03-05T10:03:01.098Z,9.50
2023-03-05T10:08:06.175Z,9.27
2023-03-05T10:13:32.474Z,9.18
2023-03-05T10:18:57.494Z,9.73
2023-03-05T10:24:07.586Z,10.85
2023-03-05T10:29:24.498Z,9.55
2023-03-05T10:34:58.458Z,9.35
2023-03-05T10:40:17.278Z,9.23
2023-03-05T10:45:28.567Z,9.50
2023-03-05T10:50:41.722Z,8.80
2023-03-05T10:55:43.912Z,8.98
2023-03-05T11:01:04.817Z,9.35
2023-03-05T11:06:06.659Z,9.73
2023-03-05T11:11:08.497Z,9.10
2023-03-05T11:16:27.589Z,8.55
2023-03-05T11:21:30.754Z,9.18
2023-03-05T11:26:33.205Z,8.35
2023-03-05T11:31:35.030Z,8.88
2023-03-05T11:36:42.205Z,8.45
2023-03-05T11:41:50.430Z,7.70
2023-03-05T11:47:01.990Z,7.80
2023-03-05T11:52:11.795Z,8.25
2023-03-05T11:57:17.078Z,7.78
2023-03-05T12:02:24.582Z,7.95
2023-03-05T12:07:37.555Z,7.07
2023-03-05T12:12:42.472Z,7.43
2023-03-05T12:18:07.402Z,7.70
2023-03-05T12:23:15.085Z,7.00
2023-03-05T12:28:37.103Z,7.85
2023-03-05T12:33:40.072Z,8.57
2023-03-05T12:38:41.815Z,8.73
2023-03-05T12:43:44.017Z,9.10
2023-03-05T12:48:46.362Z,8.60
2023-03-05T12:53:51.270Z,9.32
2023-03-05T12:58:57.708Z,8.60
2023-03-05T13:04:14.698Z,9.00
2023-03-05T13:09:28.579Z,7.90
2023-03-05T13:14:33.635Z,8.90
2023-03-05T13:19:36.570Z,9.85
2023-03-05T13:24:39.178Z,8.40
2023-03-05T13:29:55.403Z,9.52
2023-03-05T13:35:00.573Z,9.50
2023-03-05T13:40:16.731Z,8.52
2023-03-05T13:45:28.531Z,8.85
2023-03-05T13:50:41.377Z,8.57
2023-03-05T13:55:44.376Z,8.65
2023-03-05T14:00:47.105Z,8.68
2023-03-05T14:05:52.897Z,8.77
2023-03-05T14:10:57.658Z,8.55
2023-03-05T14:16:33.787Z,7.88
2023-03-05T14:21:47.480Z,8.52
2023-03-05T14:26:57.884Z,8.50
2023-03-05T14:32:08.706Z,7.97
2023-03-05T14:37:34.918Z,8.02
2023-03-05T14:42:50.406Z,9.05
2023-03-05T14:47:55.048Z,7.25
2023-03-05T14:53:01.127Z,7.05
2023-03-05T14:58:11.939Z,7.25
2023-03-05T15:03:16.285Z,8.13
2023-03-05T15:08:27.735Z,7.75
2023-03-05T15:13:30.769Z,8.07
2023-03-05T15:18:33.710Z,7.35
2023-03-05T15:23:38.747Z,7.28
2023-03-05T15:28:42.078Z,7.65
2023-03-05T15:33:44.813Z,8.25
2023-03-05T15:38:49.901Z,7.50
2023-03-05T15:43:52.500Z,7.90
2023-03-05T15:48:55.340Z,8.15
2023-03-05T15:53:58.600Z,7.65
2023-03-05T15:59:02.019Z,6.90
2023-03-05T16:04:07.086Z,7.57
2023-03-05T16:09:10.397Z,6.90
2023-03-05T16:14:13.711Z,7.00
2023-03-05T16:19:20.430Z,7.10
2023-03-05T16:24:23.211Z,7.80
2023-03-05T16:29:29.826Z,6.95
2023-03-05T16:34:35.256Z,6.47
2023-03-05T16:39:38.284Z,7.13
2023-03-05T16:44:42.510Z,7.13
2023-03-05T16:49:45.048Z,7.95
2023-03-05T16:54:48.225Z,7.75
2023-03-05T16:59:52.105Z,6.90
2023-03-05T17:04:56.579Z,5.90
2023-03-05T17:09:59.477Z,6.38
2023-03-05T17:15:02.232Z,7.28
2023-03-05T17:20:05.324Z,7.63
2023-03-05T17:25:08.790Z,8.30
2023-03-05T17:30:11.893Z,7.60
2023-03-05T17:35:22.498Z,8.68
2023-03-05T17:40:26.208Z,8.90
2023-03-05T17:45:29.171Z,8.77
2023-03-05T17:50:32.293Z,8.05
2023-03-05T17:55:37.169Z,7.65
2023-03-05T18:00:43.040Z,9.23
2023-03-05T18:05:46.115Z,8.33
2023-03-05T18:10:48.847Z,8.85
2023-03-05T18:15:51.902Z,8.95
2023-03-05T18:20:54.780Z,8.70
2023-03-05T18:25:57.170Z,8.13
2023-03-05T18:30:59.944Z,8.32
2023-03-05T18:36:03.890Z,8.32
2023-03-05T18:41:07.007Z,7.90
2023-03-05T18:46:11.172Z,8.00
2023-03-05T18:51:19.074Z,7.80
2023-03-05T18:56:23.393Z,7.70
2023-03-05T19:01:26.651Z,8.13
2023-03-05T19:06:29.652Z,8.30
2023-03-05T19:11:32.653Z,7.55
2023-03-05T19:16:41.161Z,7.45
2023-03-05T19:21:47.370Z,8.27
2023-03-05T19:26:55.563Z,8.20
2023-03-05T19:31:58.155Z,10.57
2023-03-05T19:37:01.016Z,10.77
2023-03-05T19:42:04.247Z,9.40
2023-03-05T19:47:07.543Z,8.82
2023-03-05T19:52:10.343Z,8.50
2023-03-05T19:57:15.197Z,7.43
2023-03-05T20:02:21.032Z,9.35
2023-03-05T20:07:26.863Z,9.10
2023-03-05T20:12:28.894Z,11.13
2023-03-05T20:17:31.434Z,11.93
2023-03-05T20:22:34.034Z,10.40
2023-03-05T20:27:36.732Z,10.05
2023-03-05T20:32:41.828Z,10.73
2023-03-05T20:37:51.567Z,9.38
2023-03-05T20:42:53.767Z,9.68
2023-03-05T20:47:56.478Z,9.23
2023-03-05T20:52:59.039Z,8.98
2023-03-05T20:58:03.068Z,8.80
2023-03-05T21:03:06.467Z,8.65
2023-03-05T21:08:09.154Z,8.10
2023-03-05T21:13:11.477Z,8.43
2023-03-05T21:18:16.278Z,7.95
2023-03-05T21:23:18.469Z,8.07
2023-03-05T21:28:21.164Z,7.38
2023-03-05T21:33:27.527Z,8.40
2023-03-05T21:38:30.475Z,8.35
2023-03-05T21:43:32.859Z,9.10
2023-03-05T21:48:34.937Z,11.13
2023-03-05T21:53:36.738Z,12.35
2023-03-05T21:58:38.865Z,10.73
2023-03-05T22:03:40.680Z,9.57
2023-03-05T22:08:42.949Z,9.05
2023-03-05T22:13:44.968Z,7.55
2023-03-05T22:18:46.624Z,7.65
2023-03-05T22:23:48.559Z,7.85
2023-03-05T22:28:50.792Z,7.50
2023-03-05T22:33:52.969Z,7.68
2023-03-05T22:38:54.715Z,7.35
2023-03-05T22:43:56.728Z,7.20
2023-03-05T22:48:58.392Z,7.55
2023-03-05T22:54:01.393Z,7.13
2023-03-05T22:59:03.122Z,7.88
2023-03-05T23:04:13.563Z,7.88
2023-03-05T23:09:15.356Z,7.47
2023-03-05T23:14:17.033Z,8.70
2023-03-05T23:19:18.778Z,7.65
2023-03-05T23:24:20.461Z,8.20
2023-03-05T23:29:23.280Z,7.65
2023-03-05T23:34:24.975Z,8.10
2023-03-05T23:39:26.915Z,7.05
2023-03-05T23:44:28.587Z,6.75
2023-03-05T23:49:30.231Z,7.72
2023-03-05T23:54:31.907Z,7.55
2023-03-05T23:59:34.827Z,7.30
